Time;durP1;ratioP1;P1;durP2;ratioP2;P2;SDS_P1;SDS_P2;PMS_P1;PMS_P2;Temp;Humidity;BMP_temperature;BMP_pressure;BME280_temperature;BME280_humidity;BME280_pressure;Samples;Min_cycle;Max_cycle;Signal;HPM_P1;HPM_P2
2023/08/19 00:00:32;;;;;;;8.07;5.33;;;;;;;23.27;58.51;96236.50;5087052;28;20194;-70
2023/08/19 00:02:58;;;;;;;7.70;4.77;;;;;;;23.17;58.96;96234.75;5087225;28;20189;-68
2023/08/19 00:05:23;;;;;;;7.17;4.83;;;;;;;23.14;59.12;96231.50;5087105;28;20169;-74
2023/08/19 00:07:48;;;;;;;8.77;5.47;;;;;;;23.11;59.21;96238.00;5087148;28;20169;-69
2023/08/19 00:10:14;;;;;;;6.33;5.10;;;;;;;23.07;59.26;96230.41;5086468;28;20601;-69
2023/08/19 00:12:39;;;;;;;7.73;5.80;;;;;;;23.07;59.21;96236.59;5074921;28;20250;-72
2023/08/19 00:15:05;;;;;;;8.20;5.30;;;;;;;22.98;59.59;96224.94;5066475;28;20511;-70
2023/08/19 00:17:30;;;;;;;9.80;5.33;;;;;;;22.89;59.82;96227.66;5066407;28;20182;-69
2023/08/19 00:19:56;;;;;;;8.30;6.20;;;;;;;22.88;59.82;96226.81;5069605;28;20217;-71
2023/08/19 00:22:21;;;;;;;11.47;4.90;;;;;;;22.81;59.76;96239.94;5070087;28;20190;-71
2023/08/19 00:24:46;;;;;;;5.33;4.30;;;;;;;22.86;59.85;96226.09;5070350;28;20644;-70
2023/08/19 00:27:15;;;;;;;6.33;5.27;;;;;;;22.93;59.35;96237.91;5069946;28;20180;-69
2023/08/19 00:29:40;;;;;;;7.00;5.33;;;;;;;22.87;59.41;96229.63;5069721;28;20239;-71
2023/08/19 00:32:06;;;;;;;7.37;5.73;;;;;;;22.91;59.30;96233.69;5070058;28;21112;-70
2023/08/19 00:34:31;;;;;;;9.00;6.37;;;;;;;22.82;59.66;96228.25;5069886;28;20181;-70
2023/08/19 00:36:56;;;;;;;7.47;4.63;;;;;;;22.84;59.50;96225.41;5069702;28;20166;-71
2023/08/19 00:39:22;;;;;;;6.20;5.60;;;;;;;22.84;59.39;96222.72;5069515;28;20193;-69
2023/08/19 00:41:48;;;;;;;8.43;5.40;;;;;;;22.73;59.72;96225.63;5069665;28;20675;-72
2023/08/19 00:44:13;;;;;;;9.60;5.43;;;;;;;22.76;59.63;96214.63;5069556;28;20189;-70
2023/08/19 00:46:39;;;;;;;5.83;4.93;;;;;;;22.78;59.65;96223.34;5069759;28;20163;-71
2023/08/19 00:49:05;;;;;;;6.73;6.00;;;;;;;22.81;59.40;96218.53;5069199;28;20221;-72
2023/08/19 00:51:30;;;;;;;8.37;6.03;;;;;;;22.75;59.71;96220.97;5069644;28;20220;-70
2023/08/19 00:53:56;;;;;;;14.23;5.83;;;;;;;22.73;59.86;96213.09;5069601;28;20242;-68
2023/08/19 00:56:22;;;;;;;14.70;5.70;;;;;;;22.78;59.89;96226.03;5069854;28;20178;-71
2023/08/19 00:58:47;;;;;;;9.87;5.90;;;;;;;22.69;60.26;96210.84;5076155;28;20405;-73
2023/08/19 01:01:12;;;;;;;8.20;5.23;;;;;;;22.71;60.27;96216.91;5087222;28;20186;-72
2023/08/19 01:03:38;;;;;;;8.70;4.83;;;;;;;22.73;60.04;96221.09;5077591;28;20685;-70
2023/08/19 01:06:24;;;;;;;7.47;5.37;;;;;;;22.73;59.85;96217.59;5075871;28;20257;-71
2023/08/19 01:08:56;;;;;;;10.17;5.47;;;;;;;22.61;60.18;96214.25;5073765;28;20661;-70
2023/08/19 01:11:27;;;;;;;11.93;4.90;;;;;;;22.61;60.27;96214.25;5071836;28;20412;-69
2023/08/19 01:14:05;;;;;;;6.37;5.43;;;;;;;22.51;60.41;96214.28;5089665;28;20395;-69
2023/08/19 01:16:32;;;;;;;9.20;5.60;;;;;;;22.58;60.22;96215.41;5089549;28;20469;-68
2023/08/19 01:18:59;;;;;;;6.83;5.50;;;;;;;22.64;60.03;96213.13;5089157;28;20454;-72
2023/08/19 01:21:25;;;;;;;6.53;5.83;;;;;;;22.66;60.04;96211.16;5089870;28;20811;-70
2023/08/19 01:23:56;;;;;;;14.27;6.50;;;;;;;22.59;60.23;96206.38;5089672;28;20422;-69
2023/08/19 01:26:22;;;;;;;5.90;5.30;;;;;;;22.46;60.71;96199.66;5089697;28;20178;-68
2023/08/19 01:28:47;;;;;;;7.70;5.30;;;;;;;22.48;60.71;96208.38;5089072;28;20415;-71
2023/08/19 01:31:12;;;;;;;6.73;5.80;;;;;;;22.54;60.34;96211.31;5088369;28;20158;-71
2023/08/19 01:33:38;;;;;;;8.57;5.47;;;;;;;22.43;60.63;96208.81;5089779;28;20185;-73
2023/08/19 01:36:26;;;;;;;8.13;5.40;;;;;;;22.40;60.71;96206.44;5089057;28;20193;-69
2023/08/19 01:38:54;;;;;;;6.63;5.27;;;;;;;22.43;60.58;96211.50;5088944;28;20661;-70
2023/08/19 01:41:22;;;;;;;6.73;5.27;;;;;;;22.30;60.84;96209.16;5089251;28;20490;-70
2023/08/19 01:43:48;;;;;;;6.67;5.37;;;;;;;22.41;60.62;96216.97;5089254;28;20439;-69
2023/08/19 01:46:15;;;;;;;7.07;5.93;;;;;;;22.38;60.71;96224.47;5089350;28;20678;-72
2023/08/19 01:48:40;;;;;;;9.90;6.07;;;;;;;22.39;60.61;96220.78;5088916;28;20442;-74
2023/08/19 01:51:06;;;;;;;6.60;6.00;;;;;;;22.47;60.23;96223.59;5088751;28;20924;-70
2023/08/19 01:53:31;;;;;;;7.47;5.63;;;;;;;22.35;60.57;96222.09;5088789;28;20265;-71
2023/08/19 01:55:56;;;;;;;15.23;6.37;;;;;;;22.39;60.38;96227.00;5088703;28;20574;-72
2023/08/19 01:58:22;;;;;;;11.50;6.60;;;;;;;22.39;60.07;96224.31;5088490;28;20195;-70
2023/08/19 02:00:48;;;;;;;7.60;5.80;;;;;;;22.33;60.39;96224.06;5088037;28;20276;-69
2023/08/19 02:03:13;;;;;;;10.90;5.63;;;;;;;22.28;60.42;96229.00;5088482;28;20184;-72
2023/08/19 02:05:38;;;;;;;5.47;4.90;;;;;;;22.26;60.62;96230.97;5088474;28;20208;-69
2023/08/19 02:08:04;;;;;;;6.67;5.77;;;;;;;22.27;60.57;96228.13;5088329;28;20204;-69
2023/08/19 02:10:32;;;;;;;6.67;5.97;;;;;;;22.31;60.39;96228.69;5088002;28;20207;-73
2023/08/19 02:12:57;;;;;;;6.17;5.67;;;;;;;22.26;60.43;96225.63;5074032;28;20174;-69
2023/08/19 02:15:23;;;;;;;9.07;5.87;;;;;;;22.16;60.89;96225.59;5067986;28;20431;-69
2023/08/19 02:17:48;;;;;;;6.17;5.40;;;;;;;22.16;60.84;96217.59;5068265;28;20201;-70
2023/08/19 02:20:14;;;;;;;6.97;5.43;;;;;;;22.24;60.68;96227.59;5067690;28;20243;-72
2023/08/19 02:22:40;;;;;;;11.27;5.20;;;;;;;22.15;60.84;96224.75;5067920;28;20205;-69
2023/08/19 02:25:06;;;;;;;14.90;6.63;;;;;;;22.18;60.89;96234.31;5067980;28;20243;-71
2023/08/19 02:27:32;;;;;;;8.70;6.73;;;;;;;22.16;61.01;96233.63;5076838;28;20413;-70
2023/08/19 02:29:58;;;;;;;6.50;5.80;;;;;;;22.15;60.95;96235.44;5078477;28;20574;-73
2023/08/19 02:32:23;;;;;;;7.00;5.97;;;;;;;21.95;61.72;96229.28;5077960;28;20226;-72
2023/08/19 02:34:49;;;;;;;9.47;5.47;;;;;;;21.88;61.95;96225.50;5072343;28;20420;-71
2023/08/19 02:37:14;;;;;;;7.10;6.13;;;;;;;22.11;61.08;96233.19;5067824;28;20276;-73
2023/08/19 02:39:40;;;;;;;11.10;6.50;;;;;;;22.06;61.30;96235.44;5067164;28;20194;-73
2023/08/19 02:42:05;;;;;;;12.17;6.90;;;;;;;22.13;61.03;96226.72;5067509;28;20202;-69
2023/08/19 02:44:31;;;;;;;17.47;6.90;;;;;;;22.11;60.97;96227.84;5067504;28;20209;-71
2023/08/19 02:46:56;;;;;;;10.73;6.30;;;;;;;22.11;60.99;96230.50;5067247;28;20201;-70
2023/08/19 02:49:21;;;;;;;8.00;6.10;;;;;;;22.01;61.36;96229.69;5067313;28;20197;-69
2023/08/19 02:51:47;;;;;;;14.80;6.23;;;;;;;22.03;61.08;96231.22;5067310;28;20176;-73
2023/08/19 02:54:13;;;;;;;7.30;6.03;;;;;;;22.03;60.93;96233.91;5067477;28;20647;-71
2023/08/19 02:56:38;;;;;;;9.00;6.77;;;;;;;21.94;61.42;96232.09;5067156;28;20173;-71
2023/08/19 02:59:04;;;;;;;5.30;4.80;;;;;;;21.84;61.77;96233.94;5066789;28;20455;-69
2023/08/19 03:01:29;;;;;;;7.40;5.97;;;;;;;21.82;61.72;96223.38;5067377;28;20201;-72
2023/08/19 03:03:55;;;;;;;8.00;5.77;;;;;;;21.93;61.35;96231.25;5067406;28;20186;-71
2023/08/19 03:06:20;;;;;;;7.10;5.73;;;;;;;21.83;61.42;96233.09;5067334;28;20178;-69
2023/08/19 03:08:45;;;;;;;10.87;6.20;;;;;;;21.89;61.13;96231.66;5066971;28;20181;-68
2023/08/19 03:11:11;;;;;;;8.40;5.57;;;;;;;21.76;61.61;96227.47;5067053;28;20166;-71
2023/08/19 03:13:36;;;;;;;8.03;5.90;;;;;;;21.67;61.83;96230.13;5086734;28;20188;-71
2023/08/19 03:16:02;;;;;;;7.83;6.40;;;;;;;21.66;62.06;96231.09;5087651;28;20177;-70
2023/08/19 03:18:28;;;;;;;10.10;5.10;;;;;;;21.52;62.59;96221.66;5087414;28;20555;-68
2023/08/19 03:20:56;;;;;;;7.30;5.40;;;;;;;21.51;62.71;96220.00;5086897;28;20463;-69
2023/08/19 03:23:22;;;;;;;16.73;6.50;;;;;;;21.54;62.61;96225.91;5087402;28;20435;-69
2023/08/19 03:25:50;;;;;;;8.33;6.27;;;;;;;21.53;62.70;96221.53;5087548;28;20412;-73
2023/08/19 03:28:16;;;;;;;7.50;5.70;;;;;;;21.62;62.31;96225.22;5087411;28;20169;-69
2023/08/19 03:30:41;;;;;;;11.23;5.87;;;;;;;21.53;62.25;96224.22;5087047;28;20924;-70
2023/08/19 03:33:06;;;;;;;8.47;5.80;;;;;;;21.59;62.32;96233.50;5087304;28;20169;-70
2023/08/19 03:35:33;;;;;;;6.90;6.23;;;;;;;21.56;62.12;96228.44;5087690;28;20256;-68
2023/08/19 03:37:59;;;;;;;7.30;5.70;;;;;;;21.48;62.38;96237.13;5086925;28;20169;-69
2023/08/19 03:40:25;;;;;;;9.67;7.33;;;;;;;21.36;62.73;96241.72;5086473;28;20427;-72
2023/08/19 03:42:50;;;;;;;13.63;6.97;;;;;;;21.42;62.40;96234.19;5086865;28;20201;-69
2023/08/19 03:45:16;;;;;;;10.33;7.30;;;;;;;21.43;62.39;96238.56;5086851;28;20603;-70
2023/08/19 03:47:41;;;;;;;9.23;6.77;;;;;;;21.37;62.56;96239.91;5086550;28;20169;-69
2023/08/19 03:50:07;;;;;;;11.97;6.83;;;;;;;21.26;62.81;96243.53;5086440;28;20189;-67
2023/08/19 03:52:32;;;;;;;11.07;6.83;;;;;;;21.26;62.79;96242.69;5087361;28;20169;-71
2023/08/19 03:54:58;;;;;;;8.00;7.17;;;;;;;21.14;63.44;96242.81;5091040;28;20166;-70
2023/08/19 03:57:23;;;;;;;10.20;6.83;;;;;;;21.08;63.65;96242.50;5091008;28;20683;-67
2023/08/19 03:59:50;;;;;;;8.70;6.90;;;;;;;21.13;63.23;96249.13;5090523;28;20266;-70
2023/08/19 04:02:16;;;;;;;23.23;7.60;;;;;;;21.09;63.41;96241.50;5091060;28;20277;-68
2023/08/19 04:04:56;;;;;;;8.67;6.77;;;;;;;21.11;63.45;96240.41;5090888;28;20439;-70
2023/08/19 04:07:21;;;;;;;18.83;7.27;;;;;;;20.99;63.89;96254.00;5090993;28;20177;-71
2023/08/19 04:09:47;;;;;;;10.40;6.97;;;;;;;21.10;63.25;96245.88;5090343;28;20955;-73
2023/08/19 04:12:12;;;;;;;16.53;7.00;;;;;;;21.04;63.63;96246.41;5082523;28;20250;-72
2023/08/19 04:14:37;;;;;;;10.43;7.00;;;;;;;21.09;63.19;96242.34;5070399;28;20552;-71
2023/08/19 04:17:03;;;;;;;18.83;7.93;;;;;;;20.98;63.81;96244.31;5070183;28;20244;-73
2023/08/19 04:19:28;;;;;;;8.70;7.27;;;;;;;21.13;63.21;96249.13;5070055;28;20193;-70
2023/08/19 04:21:54;;;;;;;10.40;6.50;;;;;;;20.93;64.07;96258.06;5070469;28;20836;-69
2023/08/19 04:24:19;;;;;;;11.70;6.97;;;;;;;20.94;63.81;96254.41;5070229;28;20582;-70
2023/08/19 04:26:44;;;;;;;18.93;7.60;;;;;;;21.15;63.27;96262.34;5070181;28;20176;-72
2023/08/19 04:29:10;;;;;;;19.83;7.83;;;;;;;21.08;63.40;96256.69;5069814;28;20283;-71
2023/08/19 04:31:35;;;;;;;12.77;7.30;;;;;;;20.99;64.03;96264.66;5070082;28;20202;-72
2023/08/19 04:34:00;;;;;;;25.90;9.17;;;;;;;21.15;63.46;96265.84;5069819;28;20623;-74
2023/08/19 04:36:26;;;;;;;13.87;6.90;;;;;;;21.17;63.18;96264.88;5069987;28;20170;-69
2023/08/19 04:38:51;;;;;;;12.27;7.03;;;;;;;21.15;63.08;96268.50;5069791;28;20158;-74
2023/08/19 04:41:16;;;;;;;10.93;7.70;;;;;;;21.14;63.13;96272.16;5069920;28;20679;-69
2023/08/19 04:43:42;;;;;;;20.37;6.80;;;;;;;21.03;63.88;96276.75;5070238;28;20175;-71
2023/08/19 04:46:07;;;;;;;11.90;6.23;;;;;;;20.80;64.68;96281.44;5070235;28;20632;-73
2023/08/19 04:48:33;;;;;;;12.03;6.33;;;;;;;20.80;64.82;96274.28;5073625;28;20264;-68
2023/08/19 04:51:00;;;;;;;21.87;7.50;;;;;;;21.10;63.74;96272.56;5084818;28;20190;-71
2023/08/19 04:53:25;;;;;;;20.97;8.50;;;;;;;21.19;63.21;96277.09;5077766;28;20174;-70
2023/08/19 04:55:58;;;;;;;7.40;6.23;;;;;;;21.24;63.12;96266.00;5074037;28;20825;-69
2023/08/19 04:58:23;;;;;;;7.47;6.77;;;;;;;21.20;63.07;96268.09;5071318;28;20246;-70
2023/08/19 05:00:49;;;;;;;6.03;5.43;;;;;;;21.30;62.69;96271.63;5069266;28;20437;-69
2023/08/19 05:03:15;;;;;;;16.50;6.87;;;;;;;21.24;62.96;96271.34;5069908;28;20257;-71
2023/08/19 05:05:40;;;;;;;12.90;6.50;;;;;;;21.34;62.54;96269.53;5068462;28;20206;-70
2023/08/19 05:08:06;;;;;;;17.33;7.80;;;;;;;21.39;62.08;96263.78;5069785;28;20166;-74
2023/08/19 05:10:31;;;;;;;24.07;9.33;;;;;;;21.62;61.29;96275.13;5069263;28;20193;-70
2023/08/19 05:12:58;;;;;;;10.90;5.53;;;;;;;21.68;60.70;96264.69;5083289;28;20177;-69
2023/08/19 05:15:23;;;;;;;19.13;8.30;;;;;;;21.73;60.10;96269.63;5089350;28;20170;-69
2023/08/19 05:17:49;;;;;;;10.23;6.77;;;;;;;21.74;60.26;96274.00;5089248;28;20779;-69
2023/08/19 05:20:14;;;;;;;9.30;6.40;;;;;;;22.04;59.33;96280.16;5089020;28;20197;-68
2023/08/19 05:22:39;;;;;;;17.50;7.10;;;;;;;23.03;56.00;96284.25;5089517;28;20235;-73
2023/08/19 05:25:05;;;;;;;20.77;7.67;;;;;;;23.86;53.83;96284.22;5089335;28;20181;-70
2023/08/19 05:27:31;;;;;;;26.83;8.37;;;;;;;24.28;52.43;96288.97;5089042;28;20223;-70
2023/08/19 05:29:56;;;;;;;15.70;7.60;;;;;;;24.44;51.98;96280.19;5088928;28;20193;-70
2023/08/19 05:32:22;;;;;;;30.67;8.60;;;;;;;24.61;51.43;96285.69;5089100;28;20169;-70
2023/08/19 05:34:47;;;;;;;14.27;7.23;;;;;;;24.79;50.93;96289.16;5089239;28;20169;-72
2023/08/19 05:37:12;;;;;;;26.77;7.73;;;;;;;25.01;50.17;96282.41;5089249;28;20248;-69
2023/08/19 05:39:38;;;;;;;9.37;5.90;;;;;;;25.10;49.91;96285.97;5088850;28;20843;-69
2023/08/19 05:42:04;;;;;;;7.83;6.00;;;;;;;25.14;50.09;96290.88;5088897;28;20197;-69
2023/08/19 05:44:29;;;;;;;9.00;6.67;;;;;;;25.41;48.96;96296.22;5088956;28;20181;-73
2023/08/19 05:46:55;;;;;;;9.73;6.67;;;;;;;25.53;49.09;96293.06;5088632;28;20777;-71
2023/08/19 05:49:20;;;;;;;12.37;6.70;;;;;;;25.76;48.28;96297.84;5088507;28;20284;-68
2023/08/19 05:51:45;;;;;;;10.03;7.30;;;;;;;25.75;48.57;96298.88;5088687;28;20257;-69
2023/08/19 05:54:11;;;;;;;12.13;6.87;;;;;;;25.94;48.17;96303.97;5088763;28;20893;-69
2023/08/19 05:56:36;;;;;;;9.70;6.10;;;;;;;26.11;47.86;96301.31;5088653;28;20169;-69
2023/08/19 05:59:02;;;;;;;9.90;5.90;;;;;;;26.24;47.29;96304.31;5086717;28;20193;-72
2023/08/19 06:01:28;;;;;;;18.57;6.90;;;;;;;26.34;47.41;96302.31;5088667;28;20185;-70
2023/08/19 06:03:53;;;;;;;17.30;5.87;;;;;;;26.38;47.26;96305.50;5088475;28;20469;-71
2023/08/19 06:06:18;;;;;;;14.67;6.50;;;;;;;26.66;46.29;96305.19;5088449;28;21003;-70
2023/08/19 06:08:44;;;;;;;12.53;5.87;;;;;;;26.86;46.04;96302.97;5088191;28;20650;-71
2023/08/19 06:11:09;;;;;;;14.53;5.90;;;;;;;27.30;45.24;96302.56;5088236;28;20257;-73
2023/08/19 06:13:36;;;;;;;33.17;7.70;;;;;;;27.41;45.25;96312.97;5068551;28;20170;-71
2023/08/19 06:16:03;;;;;;;20.80;7.23;;;;;;;26.98;45.76;96315.09;5067807;28;20173;-69
2023/08/19 06:18:28;;;;;;;8.23;6.57;;;;;;;26.79;46.53;96313.59;5068003;28;20457;-70
2023/08/19 06:20:55;;;;;;;20.43;7.60;;;;;;;27.24;45.49;96320.28;5067498;28;20428;-73
2023/08/19 06:23:21;;;;;;;19.17;7.50;;;;;;;27.46;45.01;96321.34;5068037;28;20555;-67
2023/08/19 06:25:51;;;;;;;10.27;6.27;;;;;;;27.89;43.69;96321.00;5068030;28;20440;-67
2023/08/19 06:28:18;;;;;;;22.30;10.90;;;;;;;27.76;44.15;96321.56;5068055;28;20419;-71
2023/08/19 06:30:44;;;;;;;28.97;8.90;;;;;;;27.90;43.96;96322.69;5067779;28;20439;-72
2023/08/19 06:33:09;;;;;;;10.10;7.03;;;;;;;27.84;43.84;96325.06;5067968;28;20417;-70
2023/08/19 06:35:36;;;;;;;16.30;10.30;;;;;;;27.99;43.57;96329.72;5067678;28;20181;-71
2023/08/19 06:38:15;;;;;;;14.47;6.57;;;;;;;27.89;44.02;96335.34;5067702;28;20264;-69
2023/08/19 06:40:54;;;;;;;14.43;8.20;;;;;;;28.15;43.31;96335.00;5067220;28;20439;-71
2023/08/19 06:43:21;;;;;;;11.33;7.50;;;;;;;27.85;43.89;96331.31;5067742;28;20412;-69
2023/08/19 06:45:48;;;;;;;18.17;8.70;;;;;;;27.27;45.50;96325.31;5067684;28;20418;-68
2023/08/19 06:48:15;;;;;;;13.47;6.80;;;;;;;27.19;45.66;96344.13;5067649;28;20446;-68
2023/08/19 06:50:41;;;;;;;10.53;6.53;;;;;;;27.04;46.24;96346.69;5067370;28;20472;-68
2023/08/19 06:53:10;;;;;;;13.10;7.20;;;;;;;27.22;46.04;96343.84;5067858;28;20764;-70
2023/08/19 06:55:39;;;;;;;16.40;7.90;;;;;;;27.88;44.47;96344.47;5067135;28;20185;-70
2023/08/19 06:58:09;;;;;;;17.73;10.60;;;;;;;27.42;44.88;96345.09;5067200;28;20403;-70
2023/08/19 07:00:37;;;;;;;27.50;9.47;;;;;;;27.00;46.61;96348.06;5066871;28;20428;-70
2023/08/19 07:03:04;;;;;;;17.87;8.23;;;;;;;28.01;44.42;96344.69;5067045;28;20476;-70
2023/08/19 07:05:30;;;;;;;9.83;7.70;;;;;;;28.19;44.07;96354.41;5067202;28;20489;-70
2023/08/19 07:07:57;;;;;;;21.17;8.40;;;;;;;27.72;44.66;96352.59;5067057;28;20453;-71
2023/08/19 07:10:23;;;;;;;25.17;8.57;;;;;;;28.04;43.99;96355.16;5066574;28;20467;-71
2023/08/19 07:12:48;;;;;;;34.17;9.20;;;;;;;28.38;43.80;96361.19;5079877;28;20849;-71
2023/08/19 07:15:15;;;;;;;26.27;9.37;;;;;;;28.67;43.08;96355.91;5087129;28;20805;-70
2023/08/19 07:17:43;;;;;;;13.37;6.97;;;;;;;28.75;43.16;96360.41;5087022;28;20189;-70
2023/08/19 07:20:13;;;;;;;21.10;9.17;;;;;;;28.31;43.49;96360.22;5087405;28;20791;-70
2023/08/19 07:22:41;;;;;;;22.87;8.60;;;;;;;28.05;44.21;96356.00;5092051;28;20554;-71
2023/08/19 07:25:07;;;;;;;14.73;7.87;;;;;;;28.86;42.78;96354.56;5087786;28;20438;-70
2023/08/19 07:27:35;;;;;;;11.07;8.43;;;;;;;28.29;43.89;96355.00;5086691;28;20451;-69
2023/08/19 07:30:02;;;;;;;11.20;8.27;;;;;;;28.12;43.74;96358.81;5087381;28;20523;-69
2023/08/19 07:32:32;;;;;;;19.07;7.73;;;;;;;28.56;42.74;96363.59;5087567;28;20415;-70
2023/08/19 07:34:58;;;;;;;12.07;8.00;;;;;;;28.62;43.31;96362.88;5086040;28;20540;-70
2023/08/19 07:37:23;;;;;;;21.33;7.70;;;;;;;29.43;41.08;96350.47;5086841;28;20399;-70
2023/08/19 07:39:50;;;;;;;12.03;7.47;;;;;;;29.93;40.26;96354.28;5086557;28;20197;-70
2023/08/19 07:42:16;;;;;;;12.53;7.73;;;;;;;29.39;40.37;96345.59;5087516;28;20218;-70
2023/08/19 07:44:41;;;;;;;13.23;7.73;;;;;;;28.97;41.62;96349.75;5086944;28;20415;-70
2023/08/19 07:47:06;;;;;;;11.87;7.83;;;;;;;28.47;43.06;96360.97;5087198;28;20271;-71
2023/08/19 07:49:32;;;;;;;13.73;8.10;;;;;;;28.43;43.31;96353.38;5086400;28;20192;-69
2023/08/19 07:51:57;;;;;;;16.13;7.47;;;;;;;29.05;42.22;96346.97;5087023;28;20165;-70
2023/08/19 07:54:23;;;;;;;19.70;7.20;;;;;;;29.64;40.38;96347.00;5086801;28;20182;-70
2023/08/19 07:56:51;;;;;;;32.20;9.30;;;;;;;30.19;39.45;96344.81;5086688;28;20165;-70
2023/08/19 07:59:17;;;;;;;11.80;7.87;;;;;;;29.74;40.16;96344.91;5086322;28;20242;-70
2023/08/19 08:01:42;;;;;;;34.63;9.47;;;;;;;30.08;39.95;96348.00;5086501;28;20455;-70
2023/08/19 08:04:07;;;;;;;12.20;7.30;;;;;;;30.09;39.90;96357.78;5086901;28;20277;-69
2023/08/19 08:06:33;;;;;;;20.77;7.40;;;;;;;30.49;38.79;96352.81;5085589;28;20181;-69
2023/08/19 08:08:58;;;;;;;19.40;6.93;;;;;;;30.66;37.73;96356.94;5086473;28;20582;-70
2023/08/19 08:11:24;;;;;;;30.40;8.10;;;;;;;31.17;36.82;96355.94;5085401;28;20980;-70
2023/08/19 08:13:49;;;;;;;20.90;8.30;;;;;;;31.41;36.24;96355.50;5066684;28;20196;-71
2023/08/19 08:16:14;;;;;;;16.90;6.80;;;;;;;31.47;36.45;96345.75;5066419;28;20177;-69
2023/08/19 08:18:40;;;;;;;18.40;7.37;;;;;;;31.50;36.28;96353.47;5066240;28;20185;-70
2023/08/19 08:21:05;;;;;;;25.80;7.10;;;;;;;31.32;36.39;96344.97;5066213;28;20282;-71
2023/08/19 08:23:31;;;;;;;9.17;5.83;;;;;;;31.11;37.03;96348.59;5066255;28;20176;-69
2023/08/19 08:25:56;;;;;;;16.23;6.30;;;;;;;31.17;36.79;96342.38;5066592;28;20326;-70
2023/08/19 08:28:22;;;;;;;15.17;7.20;;;;;;;30.73;37.69;96343.47;5066496;28;20162;-69
2023/08/19 08:30:47;;;;;;;10.40;6.40;;;;;;;30.86;37.26;96349.03;5066052;28;20246;-70
2023/08/19 08:33:13;;;;;;;17.30;6.93;;;;;;;31.42;36.85;96335.50;5066666;28;20574;-70
2023/08/19 08:35:38;;;;;;;14.40;6.27;;;;;;;31.86;35.58;96350.50;5066482;28;20165;-71
2023/08/19 08:38:04;;;;;;;11.60;6.60;;;;;;;31.72;35.95;96340.63;5066427;28;20259;-70
2023/08/19 08:40:31;;;;;;;16.73;6.70;;;;;;;31.38;35.75;96344.19;5068654;28;20206;-70
2023/08/19 08:42:57;;;;;;;12.93;6.40;;;;;;;30.65;36.57;96344.44;5069681;28;20285;-71
2023/08/19 08:45:25;;;;;;;9.20;5.10;;;;;;;30.99;36.70;96346.44;5069518;28;20975;-69
2023/08/19 08:47:51;;;;;;;19.03;7.00;;;;;;;31.62;35.15;96338.28;5069537;28;20188;-71
2023/08/19 08:50:17;;;;;;;18.73;5.90;;;;;;;31.81;34.91;96350.28;5069149;28;20438;-70
2023/08/19 08:52:42;;;;;;;19.20;7.63;;;;;;;31.89;34.89;96351.16;5069560;28;20411;-71
2023/08/19 08:55:10;;;;;;;11.40;5.43;;;;;;;32.32;33.93;96351.75;5069603;28;20240;-70
2023/08/19 08:57:35;;;;;;;6.87;5.10;;;;;;;32.15;33.72;96355.88;5069652;28;20593;-70
2023/08/19 09:00:00;;;;;;;27.23;8.77;;;;;;;32.33;33.74;96350.69;5069489;28;20455;-70
2023/08/19 09:02:27;;;;;;;28.90;7.77;;;;;;;32.52;33.66;96354.53;5071068;28;20682;-71
2023/08/19 09:04:53;;;;;;;19.27;6.67;;;;;;;32.74;33.00;96354.34;5070612;28;20653;-70
2023/08/19 09:07:32;;;;;;;13.07;5.70;;;;;;;32.41;34.02;96350.53;5069137;28;20495;-73
2023/08/19 09:09:59;;;;;;;13.80;5.60;;;;;;;32.68;33.74;96356.84;5069166;28;20272;-71
2023/08/19 09:12:26;;;;;;;27.00;7.47;;;;;;;32.82;33.22;96362.31;5078920;28;20678;-71
2023/08/19 09:14:57;;;;;;;15.67;6.07;;;;;;;32.90;32.98;96362.09;5089680;28;20411;-70
2023/08/19 09:17:23;;;;;;;9.70;5.33;;;;;;;32.13;33.59;96352.50;5089496;28;20422;-71
2023/08/19 09:19:48;;;;;;;7.43;5.47;;;;;;;31.72;34.97;96356.91;5089154;28;21002;-71
2023/08/19 09:22:41;;;;;;;8.37;5.27;;;;;;;32.00;34.68;96358.75;5093634;28;20215;-69
2023/08/19 09:25:07;;;;;;;14.30;5.30;;;;;;;32.23;33.27;96353.81;5029068;28;20219;-71
2023/08/19 09:27:32;;;;;;;13.57;5.43;;;;;;;32.08;33.56;96353.16;5026280;28;20513;-71
2023/08/19 09:29:58;;;;;;;19.97;6.43;;;;;;;32.63;32.15;96348.50;5026062;28;20622;-70
2023/08/19 09:32:28;;;;;;;18.17;7.30;;;;;;;32.82;32.83;96357.69;5026290;28;20178;-71
2023/08/19 09:35:02;;;;;;;12.67;5.70;;;;;;;32.67;32.51;96351.63;5026124;28;20603;-71
2023/08/19 09:37:29;;;;;;;10.70;6.23;;;;;;;33.00;32.21;96356.22;5026043;28;20443;-70
2023/08/19 09:39:54;;;;;;;11.40;5.90;;;;;;;33.11;32.18;96348.31;5025592;28;20464;-69
2023/08/19 09:42:21;;;;;;;17.23;6.50;;;;;;;33.30;32.02;96351.22;5025680;28;20677;-69
2023/08/19 09:44:46;;;;;;;14.07;6.47;;;;;;;33.02;32.07;96346.81;5025978;28;20266;-70
2023/08/19 09:47:12;;;;;;;20.33;6.73;;;;;;;32.87;32.79;96346.22;5026123;28;20513;-70
2023/08/19 09:49:37;;;;;;;14.83;6.63;;;;;;;33.02;32.07;96352.25;5026034;28;20214;-71
2023/08/19 09:52:03;;;;;;;10.00;5.63;;;;;;;33.06;31.78;96347.28;5025713;28;20167;-69
2023/08/19 09:54:28;;;;;;;30.93;7.40;;;;;;;33.09;31.77;96350.41;5026066;28;20178;-70
2023/08/19 09:56:55;;;;;;;11.60;6.33;;;;;;;33.07;31.99;96357.09;5025818;28;20892;-70
2023/08/19 09:59:25;;;;;;;12.60;5.87;;;;;;;32.91;32.44;96361.06;5025196;28;20536;-70
2023/08/19 10:01:52;;;;;;;10.00;6.07;;;;;;;32.88;32.71;96356.03;5051166;28;20466;-72
2023/08/19 10:04:18;;;;;;;15.80;5.77;;;;;;;32.83;32.71;96370.22;5088478;28;20778;-70
2023/08/19 10:06:49;;;;;;;12.47;5.50;;;;;;;32.72;32.67;96370.00;5088735;28;20407;-70
2023/08/19 10:09:18;;;;;;;9.10;6.50;;;;;;;32.62;33.01;96373.97;5088535;28;20427;-70
2023/08/19 10:11:45;;;;;;;9.57;5.83;;;;;;;32.69;32.94;96365.84;5084819;28;20396;-70
2023/08/19 10:14:12;;;;;;;13.67;5.90;;;;;;;32.73;32.81;96358.94;5068282;28;20526;-70
2023/08/19 10:16:42;;;;;;;18.10;7.10;;;;;;;32.82;33.73;96365.84;5067958;28;20227;-70
2023/08/19 10:19:10;;;;;;;10.87;5.60;;;;;;;32.32;34.55;96368.06;5067515;28;20204;-70
2023/08/19 10:21:37;;;;;;;19.40;6.70;;;;;;;32.53;34.26;96377.09;5067804;28;20246;-70
2023/08/19 10:24:05;;;;;;;15.50;6.13;;;;;;;32.56;33.71;96363.13;5067747;28;20451;-70
2023/08/19 10:26:32;;;;;;;8.27;5.73;;;;;;;31.68;33.03;96361.09;5067713;28;20506;-71
2023/08/19 10:29:07;;;;;;;9.93;5.00;;;;;;;32.02;33.39;96368.34;5067629;28;20173;-70
2023/08/19 10:31:35;;;;;;;6.83;5.20;;;;;;;31.61;34.29;96366.47;5067572;28;20398;-70
2023/08/19 10:34:11;;;;;;;7.03;5.37;;;;;;;32.04;33.75;96360.03;5067573;28;20469;-70
2023/08/19 10:36:37;;;;;;;11.03;6.10;;;;;;;32.34;33.80;96349.69;5067590;28;20423;-70
2023/08/19 10:39:05;;;;;;;8.93;5.10;;;;;;;32.20;34.13;96356.13;5067658;28;20579;-69
2023/08/19 10:41:35;;;;;;;8.57;5.20;;;;;;;32.35;32.73;96350.50;5067629;28;20924;-70
2023/08/19 10:44:02;;;;;;;7.07;5.50;;;;;;;32.21;34.15;96349.63;5067202;28;20408;-69
2023/08/19 10:46:39;;;;;;;9.40;5.20;;;;;;;32.17;32.84;96345.63;5067277;28;20408;-71
2023/08/19 10:49:19;;;;;;;13.23;5.80;;;;;;;32.43;33.69;96347.59;5067224;28;21003;-70
2023/08/19 10:52:03;;;;;;;9.87;6.03;;;;;;;31.89;34.85;96353.84;5067484;28;20405;-70
2023/08/19 10:54:40;;;;;;;12.20;5.40;;;;;;;32.05;34.38;96354.38;5067357;28;20782;-70
2023/08/19 10:57:17;;;;;;;9.97;4.80;;;;;;;31.84;32.59;96349.91;5067527;28;20877;-70
2023/08/19 10:59:45;;;;;;;6.50;5.20;;;;;;;31.68;34.19;96352.09;5066991;28;20458;-69
2023/08/19 11:02:11;;;;;;;8.03;5.30;;;;;;;31.52;33.46;96351.41;5066613;28;20894;-69
2023/08/19 11:04:39;;;;;;;10.07;5.67;;;;;;;31.38;34.03;96344.19;5066648;28;20420;-69
2023/08/19 11:07:07;;;;;;;14.20;5.67;;;;;;;31.77;33.22;96346.31;5066840;28;20412;-69
2023/08/19 11:09:33;;;;;;;9.77;5.90;;;;;;;31.81;32.85;96349.44;5066768;28;20460;-70
2023/08/19 11:11:58;;;;;;;6.70;5.33;;;;;;;31.93;33.72;96349.72;5072705;28;20519;-69
2023/08/19 11:14:24;;;;;;;10.67;5.47;;;;;;;31.72;34.18;96337.91;5087196;28;20176;-70
2023/08/19 11:16:51;;;;;;;16.93;5.70;;;;;;;31.78;34.25;96339.84;5087128;28;20177;-71
2023/08/19 11:19:17;;;;;;;7.23;5.47;;;;;;;31.51;35.05;96338.03;5090129;28;20200;-70
2023/08/19 11:21:43;;;;;;;5.67;5.10;;;;;;;31.40;35.54;96337.56;5087614;28;20457;-70
2023/08/19 11:24:10;;;;;;;14.70;6.30;;;;;;;31.04;37.00;96345.84;5089217;28;20418;-70
2023/08/19 11:26:35;;;;;;;10.00;6.10;;;;;;;30.97;37.03;96342.22;5089084;28;20413;-69